world map with RDO marked

RDO - Airport

This information may not be accurate or current and is not valid for navigation or flight planning. No warranty of fitness for any purpose is made or implied.

flag of Mazowieckieflag of Poland

Donate via PayPal

Additional information is available on the NEW Great Circle Mapper

Location
City:  Radom, Mazowieckie, Poland
Name:Sadków Airport
ICAO / IATA:EPRA / RDO

Details
Type:Airport (Aerodrome, Airfield)
Use:Public/Civil, Military
Latitude:51°23'20"N (51.388889)
Longitude:21°12'42"E (21.211667)
Elevation:623 ft (190 m)
Runways:1
Longest:6562 × 148 ft (2000 × 45 m)

Time
Timezone:UTC+1 (DST+4)
Local Time:

Weather
METAR:EPRA  041400Z 29007KT 260V320 9999 OVC009 01/01 Q1028

Related Locations
Nearby:
Farthest:CHT: 11463 mi / 18447 km
Waitangi [Tuuta], CIT, NZ

Find:

   beyond  
but within

Other Information
Maps:
Sources:

  


 


Great Circle Mapper   Great Circle Mapper
Great Circle Mapper FAQ   Great Circle Mapper FAQ
  Karl's Home Page
KLS˛   KLS˛ Home
   GC on Facebook
Airlines of the World   Airlines of the World
Donate via PayPal


Copyright © 2004-2019, Karl L. Swartz. All rights reserved.
All trademarks mentioned herein belong to their respective owners.

Please see credits for attribution and copyright information.

Karl Swartz <karl@kls2.com>
  Powered by FreeBSD
Valid HTML 4.01!
Labeled with ICRA
hCard Microformat
Geo Microformat